sensor_id;sensor_type;location;lat;lon;timestamp;pressure;altitude;pressure_sealevel;temperature;humidity
61035;BME280;46916;40.564;-7.958;2023-02-23T00:00:52;97383.00;;;10.11;75.46
61035;BME280;46916;40.564;-7.958;2023-02-23T00:02:53;97383.81;;;10.11;75.60
61035;BME280;46916;40.564;-7.958;2023-02-23T00:04:55;97388.47;;;10.08;75.86
61035;BME280;46916;40.564;-7.958;2023-02-23T00:06:57;97377.72;;;10.01;75.84
61035;BME280;46916;40.564;-7.958;2023-02-23T00:08:58;97392.31;;;10.04;75.87
61035;BME280;46916;40.564;-7.958;2023-02-23T00:11:02;97387.22;;;10.02;75.58
61035;BME280;46916;40.564;-7.958;2023-02-23T00:13:02;97384.72;;;10.01;76.11
61035;BME280;46916;40.564;-7.958;2023-02-23T00:15:04;97392.69;;;9.99;76.19
61035;BME280;46916;40.564;-7.958;2023-02-23T00:17:07;97389.38;;;9.97;76.14
61035;BME280;46916;40.564;-7.958;2023-02-23T00:19:13;97386.06;;;9.95;76.53
61035;BME280;46916;40.564;-7.958;2023-02-23T00:21:16;97393.47;;;9.90;76.91
61035;BME280;46916;40.564;-7.958;2023-02-23T00:23:17;97386.56;;;9.89;76.97
61035;BME280;46916;40.564;-7.958;2023-02-23T00:25:19;97386.56;;;9.89;76.52
61035;BME280;46916;40.564;-7.958;2023-02-23T00:27:20;97395.63;;;9.85;76.50
61035;BME280;46916;40.564;-7.958;2023-02-23T00:29:22;97390.78;;;9.80;76.60
61035;BME280;46916;40.564;-7.958;2023-02-23T00:31:25;97392.56;;;9.80;76.03
61035;BME280;46916;40.564;-7.958;2023-02-23T00:33:26;97383.56;;;9.73;76.04
61035;BME280;46916;40.564;-7.958;2023-02-23T00:35:29;97388.69;;;9.63;75.84
61035;BME280;46916;40.564;-7.958;2023-02-23T00:37:30;97387.03;;;9.62;75.52
61035;BME280;46916;40.564;-7.958;2023-02-23T00:39:31;97386.00;;;9.53;74.82
61035;BME280;46916;40.564;-7.958;2023-02-23T00:41:31;97380.09;;;9.51;74.99
61035;BME280;46916;40.564;-7.958;2023-02-23T00:43:37;97369.63;;;9.51;74.58
61035;BME280;46916;40.564;-7.958;2023-02-23T00:45:38;97370.44;;;9.52;74.30
61035;BME280;46916;40.564;-7.958;2023-02-23T00:47:43;97369.72;;;9.50;73.30
61035;BME280;46916;40.564;-7.958;2023-02-23T00:49:46;97371.16;;;9.42;73.75
61035;BME280;46916;40.564;-7.958;2023-02-23T00:51:47;97370.09;;;9.45;73.69
61035;BME280;46916;40.564;-7.958;2023-02-23T00:53:48;97368.06;;;9.49;73.54
61035;BME280;46916;40.564;-7.958;2023-02-23T00:55:49;97361.88;;;9.50;73.00
61035;BME280;46916;40.564;-7.958;2023-02-23T00:57:49;97359.63;;;9.56;72.43
61035;BME280;46916;40.564;-7.958;2023-02-23T00:59:51;97361.25;;;9.57;72.26
61035;BME280;46916;40.564;-7.958;2023-02-23T01:01:52;97361.25;;;9.57;72.35
61035;BME280;46916;40.564;-7.958;2023-02-23T01:03:55;97348.91;;;9.59;71.88
61035;BME280;46916;40.564;-7.958;2023-02-23T01:06:00;97349.97;;;9.57;71.21
61035;BME280;46916;40.564;-7.958;2023-02-23T01:08:04;97335.38;;;9.54;71.46
61035;BME280;46916;40.564;-7.958;2023-02-23T01:10:09;97328.41;;;9.43;71.31
61035;BME280;46916;40.564;-7.958;2023-02-23T01:12:18;97340.53;;;9.45;71.63
61035;BME280;46916;40.564;-7.958;2023-02-23T01:14:19;97335.09;;;9.36;71.68
61035;BME280;46916;40.564;-7.958;2023-02-23T01:16:23;97340.56;;;9.33;71.59
61035;BME280;46916;40.564;-7.958;2023-02-23T01:18:28;97343.41;;;9.30;71.35
61035;BME280;46916;40.564;-7.958;2023-02-23T01:20:29;97341.31;;;9.24;72.02
61035;BME280;46916;40.564;-7.958;2023-02-23T01:22:30;97338.94;;;9.21;72.18
61035;BME280;46916;40.564;-7.958;2023-02-23T01:24:30;97342.16;;;9.13;72.32
61035;BME280;46916;40.564;-7.958;2023-02-23T01:26:34;97338.13;;;9.09;72.67
61035;BME280;46916;40.564;-7.958;2023-02-23T01:28:35;97337.19;;;9.10;72.70
61035;BME280;46916;40.564;-7.958;2023-02-23T01:30:37;97339.44;;;9.15;72.50
61035;BME280;46916;40.564;-7.958;2023-02-23T01:32:38;97346.56;;;9.13;72.61
61035;BME280;46916;40.564;-7.958;2023-02-23T01:34:39;97341.84;;;9.07;72.66
61035;BME280;46916;40.564;-7.958;2023-02-23T01:36:41;97347.06;;;9.07;73.06
61035;BME280;46916;40.564;-7.958;2023-02-23T01:38:43;97337.81;;;9.03;73.04
61035;BME280;46916;40.564;-7.958;2023-02-23T01:40:43;97349.78;;;9.05;73.13
61035;BME280;46916;40.564;-7.958;2023-02-23T01:42:46;97341.13;;;9.05;72.83
61035;BME280;46916;40.564;-7.958;2023-02-23T01:46:49;97336.72;;;9.05;73.18
61035;BME280;46916;40.564;-7.958;2023-02-23T01:48:51;97340.78;;;8.98;73.24
61035;BME280;46916;40.564;-7.958;2023-02-23T01:52:59;97340.31;;;8.93;73.47
61035;BME280;46916;40.564;-7.958;2023-02-23T01:55:00;97339.72;;;8.89;73.67
61035;BME280;46916;40.564;-7.958;2023-02-23T01:57:02;97343.88;;;8.92;73.69
61035;BME280;46916;40.564;-7.958;2023-02-23T01:59:06;97343.50;;;8.97;73.22
61035;BME280;46916;40.564;-7.958;2023-02-23T02:01:09;97346.72;;;9.00;73.10
61035;BME280;46916;40.564;-7.958;2023-02-23T02:03:14;97342.22;;;9.02;72.75
61035;BME280;46916;40.564;-7.958;2023-02-23T02:05:18;97339.31;;;9.05;72.47
61035;BME280;46916;40.564;-7.958;2023-02-23T02:07:25;97354.75;;;9.08;72.41
61035;BME280;46916;40.564;-7.958;2023-02-23T02:09:27;97349.31;;;9.11;72.38
61035;BME280;46916;40.564;-7.958;2023-02-23T02:11:28;97347.38;;;9.13;71.85
61035;BME280;46916;40.564;-7.958;2023-02-23T02:13:31;97351.78;;;9.13;71.54
61035;BME280;46916;40.564;-7.958;2023-02-23T02:15:36;97343.63;;;9.06;71.23
61035;BME280;46916;40.564;-7.958;2023-02-23T02:17:46;97348.84;;;9.06;71.28
61035;BME280;46916;40.564;-7.958;2023-02-23T02:26:55;97340.53;;;9.01;71.20
61035;BME280;46916;40.564;-7.958;2023-02-23T02:41:00;97337.69;;;9.04;70.68
61035;BME280;46916;40.564;-7.958;2023-02-23T02:43:14;97325.81;;;9.00;70.67
61035;BME280;46916;40.564;-7.958;2023-02-23T02:45:50;97330.22;;;9.00;71.20
61035;BME280;46916;40.564;-7.958;2023-02-23T02:48:09;97329.75;;;8.95;70.48
61035;BME280;46916;40.564;-7.958;2023-02-23T02:50:19;97325.47;;;8.93;70.78
61035;BME280;46916;40.564;-7.958;2023-02-23T02:52:31;97312.19;;;8.85;70.72
61035;BME280;46916;40.564;-7.958;2023-02-23T02:54:48;97325.97;;;8.87;70.74
61035;BME280;46916;40.564;-7.958;2023-02-23T02:56:54;97316.72;;;8.83;70.70
61035;BME280;46916;40.564;-7.958;2023-02-23T02:58:57;97316.25;;;8.78;70.98
61035;BME280;46916;40.564;-7.958;2023-02-23T03:01:06;97315.53;;;8.76;71.18
61035;BME280;46916;40.564;-7.958;2023-02-23T03:05:54;97319.56;;;8.69;71.37
61035;BME280;46916;40.564;-7.958;2023-02-23T03:11:09;97309.16;;;8.58;71.28
61035;BME280;46916;40.564;-7.958;2023-02-23T03:19:14;97309.84;;;8.60;70.68
61035;BME280;46916;40.564;-7.958;2023-02-23T03:24:18;97297.63;;;8.60;70.11
61035;BME280;46916;40.564;-7.958;2023-02-23T03:26:58;97295.84;;;8.61;70.21
61035;BME280;46916;40.564;-7.958;2023-02-23T03:32:08;97295.97;;;8.59;69.69
61035;BME280;46916;40.564;-7.958;2023-02-23T03:34:36;97300.97;;;8.62;69.49
61035;BME280;46916;40.564;-7.958;2023-02-23T03:37:09;97305.44;;;8.60;69.71
61035;BME280;46916;40.564;-7.958;2023-02-23T03:39:39;97309.63;;;8.63;69.59
61035;BME280;46916;40.564;-7.958;2023-02-23T03:42:03;97315.78;;;8.62;69.05
61035;BME280;46916;40.564;-7.958;2023-02-23T03:44:35;97299.41;;;8.60;69.16
61035;BME280;46916;40.564;-7.958;2023-02-23T03:46:57;97295.38;;;8.56;69.19
61035;BME280;46916;40.564;-7.958;2023-02-23T03:49:21;97292.44;;;8.49;68.95
61035;BME280;46916;40.564;-7.958;2023-02-23T03:51:46;97306.31;;;8.50;68.96
61035;BME280;46916;40.564;-7.958;2023-02-23T03:54:35;97293.38;;;8.48;68.89
61035;BME280;46916;40.564;-7.958;2023-02-23T03:56:58;97290.16;;;8.44;68.87
61035;BME280;46916;40.564;-7.958;2023-02-23T03:59:24;97273.53;;;8.34;69.06
61035;BME280;46916;40.564;-7.958;2023-02-23T04:01:45;97276.03;;;8.36;69.00
61035;BME280;46916;40.564;-7.958;2023-02-23T04:04:07;97276.78;;;8.38;68.99
61035;BME280;46916;40.564;-7.958;2023-02-23T04:06:31;97283.03;;;8.35;69.06
61035;BME280;46916;40.564;-7.958;2023-02-23T04:08:56;97281.38;;;8.34;68.80
61035;BME280;46916;40.564;-7.958;2023-02-23T04:11:27;97287.41;;;8.35;68.80
61035;BME280;46916;40.564;-7.958;2023-02-23T04:13:53;97283.38;;;8.31;68.75
61035;BME280;46916;40.564;-7.958;2023-02-23T04:15:59;97277.47;;;8.29;68.60
61035;BME280;46916;40.564;-7.958;2023-02-23T04:18:03;97276.28;;;8.22;68.70
61035;BME280;46916;40.564;-7.958;2023-02-23T04:20:04;97284.81;;;8.12;68.75
61035;BME280;46916;40.564;-7.958;2023-02-23T04:22:06;97279.09;;;8.07;69.20
61035;BME280;46916;40.564;-7.958;2023-02-23T04:24:08;97269.75;;;8.05;68.83
61035;BME280;46916;40.564;-7.958;2023-02-23T04:26:08;97270.81;;;8.02;69.02
61035;BME280;46916;40.564;-7.958;2023-02-23T04:28:09;97277.22;;;7.98;68.92
61035;BME280;46916;40.564;-7.958;2023-02-23T04:30:10;97273.78;;;7.98;68.89
61035;BME280;46916;40.564;-7.958;2023-02-23T04:32:13;97270.34;;;7.97;68.27
61035;BME280;46916;40.564;-7.958;2023-02-23T04:34:15;97276.50;;;7.96;68.60
61035;BME280;46916;40.564;-7.958;2023-02-23T04:36:15;97271.16;;;7.98;67.76
61035;BME280;46916;40.564;-7.958;2023-02-23T04:38:16;97275.19;;;8.02;67.47
61035;BME280;46916;40.564;-7.958;2023-02-23T04:40:17;97287.88;;;8.06;67.33
61035;BME280;46916;40.564;-7.958;2023-02-23T04:42:18;97290.25;;;8.09;66.91
61035;BME280;46916;40.564;-7.958;2023-02-23T04:44:19;97291.69;;;8.02;66.98
61035;BME280;46916;40.564;-7.958;2023-02-23T04:46:19;97280.88;;;7.95;66.86
61035;BME280;46916;40.564;-7.958;2023-02-23T04:48:20;97282.56;;;7.97;66.84
61035;BME280;46916;40.564;-7.958;2023-02-23T04:50:21;97281.47;;;7.99;66.66
61035;BME280;46916;40.564;-7.958;2023-02-23T04:52:22;97284.69;;;8.03;66.58
61035;BME280;46916;40.564;-7.958;2023-02-23T04:54:23;97288.25;;;8.02;66.47
61035;BME280;46916;40.564;-7.958;2023-02-23T04:56:24;97288.94;;;8.04;66.30
61035;BME280;46916;40.564;-7.958;2023-02-23T04:58:25;97290.72;;;8.03;66.23
61035;BME280;46916;40.564;-7.958;2023-02-23T05:00:27;97284.81;;;8.01;65.91
61035;BME280;46916;40.564;-7.958;2023-02-23T05:02:29;97289.28;;;7.99;66.07
61035;BME280;46916;40.564;-7.958;2023-02-23T05:04:29;97281.47;;;7.99;65.94
61035;BME280;46916;40.564;-7.958;2023-02-23T05:06:30;97266.09;;;7.96;65.70
61035;BME280;46916;40.564;-7.958;2023-02-23T05:08:31;97279.94;;;7.97;65.71
61035;BME280;46916;40.564;-7.958;2023-02-23T05:10:32;97273.03;;;7.95;65.43
61035;BME280;46916;40.564;-7.958;2023-02-23T05:12:32;97272.56;;;7.90;65.48
61035;BME280;46916;40.564;-7.958;2023-02-23T05:14:33;97264.88;;;7.89;65.00
61035;BME280;46916;40.564;-7.958;2023-02-23T05:16:34;97273.97;;;7.83;64.79
61035;BME280;46916;40.564;-7.958;2023-02-23T05:18:34;97279.44;;;7.80;64.84
61035;BME280;46916;40.564;-7.958;2023-02-23T05:20:35;97271.97;;;7.76;65.02
61035;BME280;46916;40.564;-7.958;2023-02-23T05:22:36;97275.63;;;7.73;64.70
61035;BME280;46916;40.564;-7.958;2023-02-23T05:24:39;97270.44;;;7.73;64.21
61035;BME280;46916;40.564;-7.958;2023-02-23T05:26:39;97271.59;;;7.69;64.04
61035;BME280;46916;40.564;-7.958;2023-02-23T05:28:41;97272.91;;;7.75;64.03
61035;BME280;46916;40.564;-7.958;2023-02-23T05:30:42;97259.66;;;7.78;63.75
61035;BME280;46916;40.564;-7.958;2023-02-23T05:32:43;97257.03;;;7.78;63.37
61035;BME280;46916;40.564;-7.958;2023-02-23T05:34:44;97248.53;;;7.76;63.18
61035;BME280;46916;40.564;-7.958;2023-02-23T05:36:44;97256.34;;;7.76;63.43
61035;BME280;46916;40.564;-7.958;2023-02-23T05:38:45;97254.31;;;7.79;63.01
61035;BME280;46916;40.564;-7.958;2023-02-23T05:40:47;97259.28;;;7.82;62.91
61035;BME280;46916;40.564;-7.958;2023-02-23T05:42:48;97254.91;;;7.83;63.08
61035;BME280;46916;40.564;-7.958;2023-02-23T05:44:48;97251.47;;;7.82;62.81
61035;BME280;46916;40.564;-7.958;2023-02-23T05:46:49;97243.03;;;7.79;63.12
61035;BME280;46916;40.564;-7.958;2023-02-23T05:48:58;97242.81;;;7.70;63.24
61035;BME280;46916;40.564;-7.958;2023-02-23T05:51:03;97246.72;;;7.65;63.46
61035;BME280;46916;40.564;-7.958;2023-02-23T05:53:05;97243.50;;;7.61;63.46
61035;BME280;46916;40.564;-7.958;2023-02-23T05:55:06;97239.34;;;7.59;64.01
61035;BME280;46916;40.564;-7.958;2023-02-23T05:57:07;97224.06;;;7.54;63.89
61035;BME280;46916;40.564;-7.958;2023-02-23T05:59:08;97237.00;;;7.56;64.17
61035;BME280;46916;40.564;-7.958;2023-02-23T06:01:09;97232.69;;;7.55;64.17
61035;BME280;46916;40.564;-7.958;2023-02-23T06:03:10;97219.94;;;7.52;63.89
61035;BME280;46916;40.564;-7.958;2023-02-23T06:05:11;97220.75;;;7.52;63.67
61035;BME280;46916;40.564;-7.958;2023-02-23T06:07:13;97228.44;;;7.54;63.62
61035;BME280;46916;40.564;-7.958;2023-02-23T06:09:14;97229.53;;;7.51;62.92
61035;BME280;46916;40.564;-7.958;2023-02-23T06:11:14;97230.78;;;7.45;63.26
61035;BME280;46916;40.564;-7.958;2023-02-23T06:13:15;97233.53;;;7.44;63.13
61035;BME280;46916;40.564;-7.958;2023-02-23T06:15:16;97231.63;;;7.46;63.54
61035;BME280;46916;40.564;-7.958;2023-02-23T06:17:18;97234.34;;;7.44;63.29
61035;BME280;46916;40.564;-7.958;2023-02-23T06:19:18;97230.09;;;7.43;63.25
61035;BME280;46916;40.564;-7.958;2023-02-23T06:21:19;97230.91;;;7.44;63.20
61035;BME280;46916;40.564;-7.958;2023-02-23T06:23:20;97231.03;;;7.42;63.26
61035;BME280;46916;40.564;-7.958;2023-02-23T06:25:22;97229.50;;;7.40;63.35
61035;BME280;46916;40.564;-7.958;2023-02-23T06:27:22;97234.47;;;7.43;63.13
61035;BME280;46916;40.564;-7.958;2023-02-23T06:29:23;97231.03;;;7.42;62.99
61035;BME280;46916;40.564;-7.958;2023-02-23T06:31:24;97218.34;;;7.38;63.21
61035;BME280;46916;40.564;-7.958;2023-02-23T06:33:25;97227.09;;;7.37;63.42
61035;BME280;46916;40.564;-7.958;2023-02-23T06:35:27;97224.63;;;7.35;63.39
61035;BME280;46916;40.564;-7.958;2023-02-23T06:37:28;97227.44;;;7.32;63.68
61035;BME280;46916;40.564;-7.958;2023-02-23T06:39:28;97223.41;;;7.28;63.33
61035;BME280;46916;40.564;-7.958;2023-02-23T06:41:29;97223.28;;;7.30;63.08
61035;BME280;46916;40.564;-7.958;2023-02-23T06:43:31;97228.50;;;7.30;63.01
61035;BME280;46916;40.564;-7.958;2023-02-23T06:45:32;97219.84;;;7.29;62.94
61035;BME280;46916;40.564;-7.958;2023-02-23T06:47:33;97220.69;;;7.30;62.84
61035;BME280;46916;40.564;-7.958;2023-02-23T06:49:34;97217.16;;;7.31;62.48
61035;BME280;46916;40.564;-7.958;2023-02-23T06:51:34;97223.41;;;7.28;62.45
61035;BME280;46916;40.564;-7.958;2023-02-23T06:53:35;97216.66;;;7.26;62.40
61035;BME280;46916;40.564;-7.958;2023-02-23T06:55:36;97218.56;;;7.24;62.02
61035;BME280;46916;40.564;-7.958;2023-02-23T06:57:37;97214.28;;;7.23;62.19
61035;BME280;46916;40.564;-7.958;2023-02-23T06:59:37;97205.88;;;7.19;61.71
61035;BME280;46916;40.564;-7.958;2023-02-23T07:01:38;97203.09;;;7.09;61.66
61035;BME280;46916;40.564;-7.958;2023-02-23T07:03:39;97207.50;;;7.09;61.64
61035;BME280;46916;40.564;-7.958;2023-02-23T07:05:40;97208.31;;;7.09;61.80
61035;BME280;46916;40.564;-7.958;2023-02-23T07:07:41;97211.44;;;7.14;61.08
61035;BME280;46916;40.564;-7.958;2023-02-23T07:09:41;97208.31;;;7.09;61.63
61035;BME280;46916;40.564;-7.958;2023-02-23T07:11:42;97213.66;;;7.08;61.66
61035;BME280;46916;40.564;-7.958;2023-02-23T07:13:44;97206.88;;;7.05;60.39
61035;BME280;46916;40.564;-7.958;2023-02-23T07:15:45;97215.25;;;6.98;60.57
61035;BME280;46916;40.564;-7.958;2023-02-23T07:17:45;97212.28;;;6.91;60.97
61035;BME280;46916;40.564;-7.958;2023-02-23T07:19:48;97215.84;;;6.90;60.84
61035;BME280;46916;40.564;-7.958;2023-02-23T07:21:49;97215.84;;;6.90;60.49
61035;BME280;46916;40.564;-7.958;2023-02-23T07:23:49;97219.97;;;6.92;60.84
61035;BME280;46916;40.564;-7.958;2023-02-23T07:25:53;97213.38;;;7.00;60.42
61035;BME280;46916;40.564;-7.958;2023-02-23T07:27:55;97202.97;;;7.00;60.27
61035;BME280;46916;40.564;-7.958;2023-02-23T07:29:58;97209.94;;;6.99;60.11
61035;BME280;46916;40.564;-7.958;2023-02-23T07:32:00;97207.78;;;6.93;59.68
61035;BME280;46916;40.564;-7.958;2023-02-23T07:34:00;97217.38;;;6.92;59.95
61035;BME280;46916;40.564;-7.958;2023-02-23T07:36:01;97217.81;;;7.10;59.37
61035;BME280;46916;40.564;-7.958;2023-02-23T07:38:02;97210.44;;;7.39;58.92
61035;BME280;46916;40.564;-7.958;2023-02-23T07:40:03;97217.09;;;7.66;58.39
61035;BME280;46916;40.564;-7.958;2023-02-23T07:42:04;97222.56;;;7.97;57.93
61035;BME280;46916;40.564;-7.958;2023-02-23T07:44:05;97228.34;;;8.11;56.70
61035;BME280;46916;40.564;-7.958;2023-02-23T07:46:06;97225.97;;;8.19;56.68
61035;BME280;46916;40.564;-7.958;2023-02-23T07:48:11;97230.28;;;8.21;56.30
61035;BME280;46916;40.564;-7.958;2023-02-23T07:50:12;97235.00;;;8.27;56.17
61035;BME280;46916;40.564;-7.958;2023-02-23T07:52:16;97232.84;;;8.32;56.18
61035;BME280;46916;40.564;-7.958;2023-02-23T07:54:18;97215.69;;;8.29;55.59
61035;BME280;46916;40.564;-7.958;2023-02-23T07:56:18;97224.09;;;8.33;55.70
61035;BME280;46916;40.564;-7.958;2023-02-23T07:58:19;97218.63;;;8.47;55.75
61035;BME280;46916;40.564;-7.958;2023-02-23T08:00:22;97225.28;;;8.51;54.95
61035;BME280;46916;40.564;-7.958;2023-02-23T08:02:24;97227.13;;;8.72;54.83
61035;BME280;46916;40.564;-7.958;2023-02-23T08:04:28;97219.34;;;8.92;54.00
61035;BME280;46916;40.564;-7.958;2023-02-23T08:06:29;97218.09;;;9.08;53.26
61035;BME280;46916;40.564;-7.958;2023-02-23T08:08:30;97220.28;;;9.24;51.99
61035;BME280;46916;40.564;-7.958;2023-02-23T08:10:31;97236.53;;;9.48;52.21
61035;BME280;46916;40.564;-7.958;2023-02-23T08:12:35;97227.41;;;9.63;51.48
61035;BME280;46916;40.564;-7.958;2023-02-23T08:14:38;97231.09;;;9.82;51.05
61035;BME280;46916;40.564;-7.958;2023-02-23T08:16:41;97239.94;;;9.90;51.08
61035;BME280;46916;40.564;-7.958;2023-02-23T08:18:42;97242.47;;;10.02;50.42
61035;BME280;46916;40.564;-7.958;2023-02-23T08:20:42;97239.63;;;10.14;51.67
61035;BME280;46916;40.564;-7.958;2023-02-23T08:22:43;97237.13;;;10.34;52.33
61035;BME280;46916;40.564;-7.958;2023-02-23T08:24:44;97233.88;;;10.51;52.08
61035;BME280;46916;40.564;-7.958;2023-02-23T08:26:44;97226.59;;;10.64;52.24
61035;BME280;46916;40.564;-7.958;2023-02-23T08:28:45;97234.75;;;10.81;51.41
61035;BME280;46916;40.564;-7.958;2023-02-23T08:30:46;97227.88;;;10.99;50.04
61035;BME280;46916;40.564;-7.958;2023-02-23T08:32:47;97224.69;;;11.05;49.48
61035;BME280;46916;40.564;-7.958;2023-02-23T08:34:50;97227.88;;;11.09;48.77
61035;BME280;46916;40.564;-7.958;2023-02-23T08:36:54;97220.03;;;11.19;47.77
61035;BME280;46916;40.564;-7.958;2023-02-23T08:38:55;97227.19;;;11.36;48.23
61035;BME280;46916;40.564;-7.958;2023-02-23T08:41:02;97226.34;;;11.45;47.72
61035;BME280;46916;40.564;-7.958;2023-02-23T08:43:06;97220.53;;;11.51;46.48
61035;BME280;46916;40.564;-7.958;2023-02-23T08:45:10;97219.81;;;11.59;46.37
61035;BME280;46916;40.564;-7.958;2023-02-23T08:47:17;97224.66;;;11.63;46.24
61035;BME280;46916;40.564;-7.958;2023-02-23T08:49:29;97230.97;;;11.71;46.20
61035;BME280;46916;40.564;-7.958;2023-02-23T08:51:34;97221.03;;;11.74;46.08
61035;BME280;46916;40.564;-7.958;2023-02-23T08:53:35;97230.31;;;11.88;46.51
61035;BME280;46916;40.564;-7.958;2023-02-23T08:55:37;97232.06;;;11.97;45.85
61035;BME280;46916;40.564;-7.958;2023-02-23T08:57:38;97223.59;;;12.03;45.77
61035;BME280;46916;40.564;-7.958;2023-02-23T08:59:39;97229.94;;;12.10;46.00
61035;BME280;46916;40.564;-7.958;2023-02-23T09:01:41;97232.38;;;12.22;45.51
61035;BME280;46916;40.564;-7.958;2023-02-23T09:03:42;97225.88;;;12.26;44.85
61035;BME280;46916;40.564;-7.958;2023-02-23T09:05:44;97230.84;;;12.29;45.95
61035;BME280;46916;40.564;-7.958;2023-02-23T09:07:47;97225.69;;;12.37;45.75
61035;BME280;46916;40.564;-7.958;2023-02-23T09:09:59;97229.34;;;12.44;44.84
61035;BME280;46916;40.564;-7.958;2023-02-23T09:12:02;97228.78;;;12.50;45.33
61035;BME280;46916;40.564;-7.958;2023-02-23T09:14:06;97225.44;;;12.58;44.32
61035;BME280;46916;40.564;-7.958;2023-02-23T09:16:08;97237.84;;;12.66;44.69
61035;BME280;46916;40.564;-7.958;2023-02-23T09:18:16;97231.44;;;12.68;44.09
61035;BME280;46916;40.564;-7.958;2023-02-23T09:20:26;97218.03;;;12.44;43.31
61035;BME280;46916;40.564;-7.958;2023-02-23T09:22:27;97224.06;;;12.54;44.06
61035;BME280;46916;40.564;-7.958;2023-02-23T09:24:33;97234.13;;;12.58;43.78
61035;BME280;46916;40.564;-7.958;2023-02-23T09:26:34;97228.59;;;12.61;43.69
61035;BME280;46916;40.564;-7.958;2023-02-23T09:28:39;97231.59;;;12.67;43.98
61035;BME280;46916;40.564;-7.958;2023-02-23T09:30:41;97241.13;;;12.68;43.97
61035;BME280;46916;40.564;-7.958;2023-02-23T09:32:43;97248.34;;;12.66;43.48
61035;BME280;46916;40.564;-7.958;2023-02-23T09:34:47;97257.59;;;12.70;44.03
61035;BME280;46916;40.564;-7.958;2023-02-23T09:36:48;97259.91;;;12.73;43.19
61035;BME280;46916;40.564;-7.958;2023-02-23T09:38:53;97261.56;;;12.74;42.62
61035;BME280;46916;40.564;-7.958;2023-02-23T09:40:56;97267.41;;;12.68;41.49
61035;BME280;46916;40.564;-7.958;2023-02-23T09:43:46;97264.59;;;12.51;42.41
61035;BME280;46916;40.564;-7.958;2023-02-23T09:45:29;97267.75;;;12.55;43.05
61035;BME280;46916;40.564;-7.958;2023-02-23T09:48:09;97263.41;;;12.63;43.11
61035;BME280;46916;40.564;-7.958;2023-02-23T09:50:21;97262.59;;;12.63;42.17
61035;BME280;46916;40.564;-7.958;2023-02-23T09:52:33;97268.28;;;12.58;43.06
61035;BME280;46916;40.564;-7.958;2023-02-23T09:54:36;97264.97;;;12.56;42.77
61035;BME280;46916;40.564;-7.958;2023-02-23T09:56:44;97268.50;;;12.65;42.37
61035;BME280;46916;40.564;-7.958;2023-02-23T09:58:46;97267.16;;;12.61;42.45
61035;BME280;46916;40.564;-7.958;2023-02-23T10:01:03;97258.84;;;12.66;40.47
61035;BME280;46916;40.564;-7.958;2023-02-23T10:03:13;97261.81;;;12.53;41.78
61035;BME280;46916;40.564;-7.958;2023-02-23T10:05:17;97259.44;;;12.59;42.43
61035;BME280;46916;40.564;-7.958;2023-02-23T10:10:14;97259.03;;;12.82;42.66
61035;BME280;46916;40.564;-7.958;2023-02-23T10:12:24;97247.34;;;12.94;42.76
61035;BME280;46916;40.564;-7.958;2023-02-23T10:17:18;97247.91;;;13.06;42.28
61035;BME280;46916;40.564;-7.958;2023-02-23T10:21:40;97238.00;;;13.18;42.23
61035;BME280;46916;40.564;-7.958;2023-02-23T10:26:01;97235.81;;;13.23;42.29
61035;BME280;46916;40.564;-7.958;2023-02-23T10:28:02;97229.81;;;13.21;42.27
61035;BME280;46916;40.564;-7.958;2023-02-23T10:30:15;97233.69;;;13.26;42.03
61035;BME280;46916;40.564;-7.958;2023-02-23T10:32:40;97238.53;;;13.21;40.18
61035;BME280;46916;40.564;-7.958;2023-02-23T10:34:45;97226.53;;;13.01;40.03
61035;BME280;46916;40.564;-7.958;2023-02-23T10:36:54;97240.34;;;13.03;40.23
61035;BME280;46916;40.564;-7.958;2023-02-23T10:39:04;97240.47;;;13.01;40.72
61035;BME280;46916;40.564;-7.958;2023-02-23T10:41:06;97233.50;;;13.10;40.84
61035;BME280;46916;40.564;-7.958;2023-02-23T10:43:11;97241.63;;;13.17;40.34
61035;BME280;46916;40.564;-7.958;2023-02-23T10:45:18;97248.22;;;13.21;40.10
61035;BME280;46916;40.564;-7.958;2023-02-23T10:47:29;97243.91;;;13.29;39.92
61035;BME280;46916;40.564;-7.958;2023-02-23T10:49:58;97240.75;;;13.26;39.93
61035;BME280;46916;40.564;-7.958;2023-02-23T10:52:00;97247.06;;;13.33;39.53
61035;BME280;46916;40.564;-7.958;2023-02-23T10:54:42;97237.13;;;13.45;40.10
61035;BME280;46916;40.564;-7.958;2023-02-23T10:56:47;97236.06;;;13.55;39.90
61035;BME280;46916;40.564;-7.958;2023-02-23T10:58:56;97234.84;;;13.68;40.07
61035;BME280;46916;40.564;-7.958;2023-02-23T11:01:03;97225.66;;;13.72;39.34
61035;BME280;46916;40.564;-7.958;2023-02-23T11:03:26;97232.94;;;13.78;39.75
61035;BME280;46916;40.564;-7.958;2023-02-23T11:07:37;97217.34;;;13.84;39.34
61035;BME280;46916;40.564;-7.958;2023-02-23T11:09:38;97219.81;;;13.86;39.54
61035;BME280;46916;40.564;-7.958;2023-02-23T11:12:00;97215.50;;;13.77;36.71
61035;BME280;46916;40.564;-7.958;2023-02-23T11:14:15;97209.06;;;13.53;37.47
61035;BME280;46916;40.564;-7.958;2023-02-23T11:16:20;97208.56;;;13.50;38.47
61035;BME280;46916;40.564;-7.958;2023-02-23T11:18:28;97214.97;;;13.47;37.27
61035;BME280;46916;40.564;-7.958;2023-02-23T11:20:37;97212.53;;;13.54;37.78
61035;BME280;46916;40.564;-7.958;2023-02-23T11:22:41;97216.25;;;13.69;38.27
61035;BME280;46916;40.564;-7.958;2023-02-23T11:24:43;97212.09;;;13.84;37.87
61035;BME280;46916;40.564;-7.958;2023-02-23T11:26:49;97205.31;;;13.82;37.72
61035;BME280;46916;40.564;-7.958;2023-02-23T11:28:54;97199.69;;;13.77;37.77
61035;BME280;46916;40.564;-7.958;2023-02-23T11:31:03;97204.97;;;13.77;38.19
61035;BME280;46916;40.564;-7.958;2023-02-23T11:33:16;97199.75;;;13.85;38.43
61035;BME280;46916;40.564;-7.958;2023-02-23T11:37:21;97206.13;;;13.82;36.44
61035;BME280;46916;40.564;-7.958;2023-02-23T11:39:25;97195.50;;;13.66;36.01
61035;BME280;46916;40.564;-7.958;2023-02-23T11:41:26;97189.16;;;13.51;36.97
61035;BME280;46916;40.564;-7.958;2023-02-23T11:43:27;97201.19;;;13.53;37.50
61035;BME280;46916;40.564;-7.958;2023-02-23T11:45:29;97192.94;;;13.48;37.58
61035;BME280;46916;40.564;-7.958;2023-02-23T11:47:38;97181.13;;;13.52;37.11
61035;BME280;46916;40.564;-7.958;2023-02-23T11:49:43;97186.31;;;13.44;36.98
61035;BME280;46916;40.564;-7.958;2023-02-23T11:51:47;97186.47;;;13.43;37.07
61035;BME280;46916;40.564;-7.958;2023-02-23T11:53:57;97185.03;;;13.48;37.05
61035;BME280;46916;40.564;-7.958;2023-02-23T11:56:01;97189.63;;;13.46;35.78